sensor_id;sensor_type;location;lat;lon;timestamp;pressure;altitude;pressure_sealevel;temperature;humidity
75536;BME280;64119;52.070;20.804;2023-09-07T00:00:22;101369.75;;;13.10;89.21
75536;BME280;64119;52.070;20.804;2023-09-07T00:03:11;101369.08;;;13.06;88.75
75536;BME280;64119;52.070;20.804;2023-09-07T00:05:40;101370.44;;;13.05;89.44
75536;BME280;64119;52.070;20.804;2023-09-07T00:08:07;101372.27;;;13.05;89.96
75536;BME280;64119;52.070;20.804;2023-09-07T00:10:35;101371.67;;;13.02;89.32
75536;BME280;64119;52.070;20.804;2023-09-07T00:13:03;101369.88;;;12.99;88.35
75536;BME280;64119;52.070;20.804;2023-09-07T00:15:37;101371.61;;;12.98;88.24
75536;BME280;64119;52.070;20.804;2023-09-07T00:18:04;101366.93;;;12.97;87.76
75536;BME280;64119;52.070;20.804;2023-09-07T00:20:33;101366.80;;;12.97;87.68
75536;BME280;64119;52.070;20.804;2023-09-07T00:23:01;101368.56;;;12.97;88.62
75536;BME280;64119;52.070;20.804;2023-09-07T00:25:29;101365.47;;;12.96;88.56
75536;BME280;64119;52.070;20.804;2023-09-07T00:27:57;101360.84;;;12.93;89.02
75536;BME280;64119;52.070;20.804;2023-09-07T00:30:25;101359.48;;;12.91;88.84
75536;BME280;64119;52.070;20.804;2023-09-07T00:32:53;101357.77;;;12.89;89.16
75536;BME280;64119;52.070;20.804;2023-09-07T00:35:21;101358.70;;;12.88;88.34
75536;BME280;64119;52.070;20.804;2023-09-07T00:37:49;101359.00;;;12.87;88.77
75536;BME280;64119;52.070;20.804;2023-09-07T00:40:16;101361.25;;;12.84;89.43
75536;BME280;64119;52.070;20.804;2023-09-07T00:42:44;101361.33;;;12.82;88.76
75536;BME280;64119;52.070;20.804;2023-09-07T00:45:12;101359.42;;;12.80;89.17
75536;BME280;64119;52.070;20.804;2023-09-07T00:47:41;101361.83;;;12.77;89.50
75536;BME280;64119;52.070;20.804;2023-09-07T00:50:09;101363.48;;;12.76;90.04
75536;BME280;64119;52.070;20.804;2023-09-07T00:52:46;101360.02;;;12.72;90.52
75536;BME280;64119;52.070;20.804;2023-09-07T00:55:15;101367.95;;;12.69;90.88
75536;BME280;64119;52.070;20.804;2023-09-07T00:57:43;101368.41;;;12.67;90.56
75536;BME280;64119;52.070;20.804;2023-09-07T01:00:11;101367.02;;;12.65;90.65
75536;BME280;64119;52.070;20.804;2023-09-07T01:02:39;101364.25;;;12.64;90.11
75536;BME280;64119;52.070;20.804;2023-09-07T01:05:08;101363.33;;;12.65;89.78
75536;BME280;64119;52.070;20.804;2023-09-07T01:07:46;101362.13;;;12.64;89.71
75536;BME280;64119;52.070;20.804;2023-09-07T01:10:15;101357.06;;;12.65;89.78
75536;BME280;64119;52.070;20.804;2023-09-07T01:12:43;101355.36;;;12.64;89.20
75536;BME280;64119;52.070;20.804;2023-09-07T01:15:11;101355.73;;;12.64;89.22
75536;BME280;64119;52.070;20.804;2023-09-07T01:17:39;101356.23;;;12.65;88.89
75536;BME280;64119;52.070;20.804;2023-09-07T01:20:08;101357.50;;;12.64;89.74
75536;BME280;64119;52.070;20.804;2023-09-07T01:22:38;101356.74;;;12.63;91.27
75536;BME280;64119;52.070;20.804;2023-09-07T01:25:07;101353.61;;;12.63;89.88
75536;BME280;64119;52.070;20.804;2023-09-07T01:27:35;101352.95;;;12.62;89.99
75536;BME280;64119;52.070;20.804;2023-09-07T01:30:03;101352.01;;;12.61;90.13
75536;BME280;64119;52.070;20.804;2023-09-07T01:32:31;101353.63;;;12.61;89.82
75536;BME280;64119;52.070;20.804;2023-09-07T01:35:00;101357.06;;;12.60;90.18
75536;BME280;64119;52.070;20.804;2023-09-07T01:37:29;101353.48;;;12.59;90.20
75536;BME280;64119;52.070;20.804;2023-09-07T01:39:57;101354.74;;;12.59;90.40
75536;BME280;64119;52.070;20.804;2023-09-07T01:42:25;101353.91;;;12.59;90.15
75536;BME280;64119;52.070;20.804;2023-09-07T01:44:53;101353.73;;;12.57;90.38
75536;BME280;64119;52.070;20.804;2023-09-07T01:47:21;101353.30;;;12.56;90.56
75536;BME280;64119;52.070;20.804;2023-09-07T01:49:49;101353.55;;;12.54;90.78
75536;BME280;64119;52.070;20.804;2023-09-07T01:52:16;101355.42;;;12.54;90.34
75536;BME280;64119;52.070;20.804;2023-09-07T01:54:45;101358.98;;;12.53;90.15
75536;BME280;64119;52.070;20.804;2023-09-07T01:57:13;101357.28;;;12.53;90.28
75536;BME280;64119;52.070;20.804;2023-09-07T01:59:41;101358.13;;;12.52;89.91
75536;BME280;64119;52.070;20.804;2023-09-07T02:02:09;101355.66;;;12.51;89.72
75536;BME280;64119;52.070;20.804;2023-09-07T02:04:36;101356.96;;;12.51;89.49
75536;BME280;64119;52.070;20.804;2023-09-07T02:07:04;101357.23;;;12.50;89.51
75536;BME280;64119;52.070;20.804;2023-09-07T02:09:33;101359.23;;;12.50;89.45
75536;BME280;64119;52.070;20.804;2023-09-07T02:12:01;101356.11;;;12.49;90.14
75536;BME280;64119;52.070;20.804;2023-09-07T02:14:30;101356.55;;;12.48;90.38
75536;BME280;64119;52.070;20.804;2023-09-07T02:16:58;101356.85;;;12.47;90.10
75536;BME280;64119;52.070;20.804;2023-09-07T02:19:26;101357.60;;;12.46;89.99
75536;BME280;64119;52.070;20.804;2023-09-07T02:21:54;101360.23;;;12.44;90.45
75536;BME280;64119;52.070;20.804;2023-09-07T02:24:22;101355.73;;;12.42;90.14
75536;BME280;64119;52.070;20.804;2023-09-07T02:26:50;101354.20;;;12.41;90.14
75536;BME280;64119;52.070;20.804;2023-09-07T02:29:18;101355.05;;;12.38;91.00
75536;BME280;64119;52.070;20.804;2023-09-07T02:31:46;101356.90;;;12.35;91.75
75536;BME280;64119;52.070;20.804;2023-09-07T02:34:14;101358.65;;;12.32;91.35
75536;BME280;64119;52.070;20.804;2023-09-07T02:36:42;101365.29;;;12.31;90.17
75536;BME280;64119;52.070;20.804;2023-09-07T02:39:10;101370.44;;;12.28;91.06
75536;BME280;64119;52.070;20.804;2023-09-07T02:41:39;101372.55;;;12.25;90.20
75536;BME280;64119;52.070;20.804;2023-09-07T02:44:07;101374.55;;;12.25;89.73
75536;BME280;64119;52.070;20.804;2023-09-07T02:46:35;101371.92;;;12.24;89.74
75536;BME280;64119;52.070;20.804;2023-09-07T02:49:02;101376.25;;;12.24;90.25
75536;BME280;64119;52.070;20.804;2023-09-07T02:51:31;101375.77;;;12.22;90.17
75536;BME280;64119;52.070;20.804;2023-09-07T02:53:58;101374.14;;;12.21;90.29
75536;BME280;64119;52.070;20.804;2023-09-07T02:56:27;101378.70;;;12.20;90.16
75536;BME280;64119;52.070;20.804;2023-09-07T02:58:55;101379.26;;;12.18;90.20
75536;BME280;64119;52.070;20.804;2023-09-07T03:01:24;101381.81;;;12.17;90.50
75536;BME280;64119;52.070;20.804;2023-09-07T03:03:52;101383.52;;;12.15;90.82
75536;BME280;64119;52.070;20.804;2023-09-07T03:06:20;101384.45;;;12.13;91.10
75536;BME280;64119;52.070;20.804;2023-09-07T03:08:50;101386.13;;;12.11;91.07
75536;BME280;64119;52.070;20.804;2023-09-07T03:11:19;101388.13;;;12.10;90.60
75536;BME280;64119;52.070;20.804;2023-09-07T03:13:48;101389.55;;;12.10;92.04
75536;BME280;64119;52.070;20.804;2023-09-07T03:16:16;101388.36;;;12.08;91.34
75536;BME280;64119;52.070;20.804;2023-09-07T03:18:44;101390.36;;;12.08;90.91
75536;BME280;64119;52.070;20.804;2023-09-07T03:21:12;101389.64;;;12.06;90.59
75536;BME280;64119;52.070;20.804;2023-09-07T03:23:40;101388.35;;;12.05;90.71
75536;BME280;64119;52.070;20.804;2023-09-07T03:26:12;101391.27;;;12.04;91.31
75536;BME280;64119;52.070;20.804;2023-09-07T03:28:40;101389.98;;;12.02;90.88
75536;BME280;64119;52.070;20.804;2023-09-07T03:31:08;101393.58;;;11.99;90.86
75536;BME280;64119;52.070;20.804;2023-09-07T03:33:35;101391.69;;;11.99;90.07
75536;BME280;64119;52.070;20.804;2023-09-07T03:36:03;101392.86;;;11.98;89.98
75536;BME280;64119;52.070;20.804;2023-09-07T03:38:31;101396.55;;;11.96;90.78
75536;BME280;64119;52.070;20.804;2023-09-07T03:40:59;101399.06;;;11.95;91.12
75536;BME280;64119;52.070;20.804;2023-09-07T03:43:29;101397.56;;;11.92;91.15
75536;BME280;64119;52.070;20.804;2023-09-07T03:45:57;101395.02;;;11.91;91.25
75536;BME280;64119;52.070;20.804;2023-09-07T03:48:26;101399.04;;;11.89;91.70
75536;BME280;64119;52.070;20.804;2023-09-07T03:50:54;101399.50;;;11.86;91.29
75536;BME280;64119;52.070;20.804;2023-09-07T03:53:21;101398.19;;;11.85;91.07
75536;BME280;64119;52.070;20.804;2023-09-07T03:55:49;101400.04;;;11.84;91.11
75536;BME280;64119;52.070;20.804;2023-09-07T03:58:17;101400.21;;;11.83;91.14
75536;BME280;64119;52.070;20.804;2023-09-07T04:00:45;101393.52;;;11.81;91.01
75536;BME280;64119;52.070;20.804;2023-09-07T04:03:13;101392.31;;;11.81;90.70
75536;BME280;64119;52.070;20.804;2023-09-07T04:05:43;101395.55;;;11.80;90.84
75536;BME280;64119;52.070;20.804;2023-09-07T04:08:11;101396.19;;;11.79;90.90
75536;BME280;64119;52.070;20.804;2023-09-07T04:10:39;101396.59;;;11.79;91.09
75536;BME280;64119;52.070;20.804;2023-09-07T04:13:07;101398.95;;;11.79;91.22
75536;BME280;64119;52.070;20.804;2023-09-07T04:15:43;101399.64;;;11.77;91.58
75536;BME280;64119;52.070;20.804;2023-09-07T04:18:12;101401.67;;;11.76;91.34
75536;BME280;64119;52.070;20.804;2023-09-07T04:20:43;101401.56;;;11.77;91.48
75536;BME280;64119;52.070;20.804;2023-09-07T04:23:12;101405.75;;;11.78;91.34
75536;BME280;64119;52.070;20.804;2023-09-07T04:25:40;101402.59;;;11.79;91.05
75536;BME280;64119;52.070;20.804;2023-09-07T04:28:08;101404.77;;;11.81;91.23
75536;BME280;64119;52.070;20.804;2023-09-07T04:30:41;101407.16;;;11.82;91.57
75536;BME280;64119;52.070;20.804;2023-09-07T04:33:09;101409.86;;;11.84;91.58
75536;BME280;64119;52.070;20.804;2023-09-07T04:35:37;101408.76;;;11.86;90.82
75536;BME280;64119;52.070;20.804;2023-09-07T04:38:06;101410.27;;;11.90;90.47
75536;BME280;64119;52.070;20.804;2023-09-07T04:40:34;101411.89;;;11.94;90.69
75536;BME280;64119;52.070;20.804;2023-09-07T04:43:02;101414.59;;;11.98;91.09
75536;BME280;64119;52.070;20.804;2023-09-07T04:45:30;101414.88;;;12.03;91.43
75536;BME280;64119;52.070;20.804;2023-09-07T04:47:58;101413.87;;;12.07;90.65
75536;BME280;64119;52.070;20.804;2023-09-07T04:50:26;101416.88;;;12.11;91.16
75536;BME280;64119;52.070;20.804;2023-09-07T04:52:54;101415.42;;;12.16;90.87
75536;BME280;64119;52.070;20.804;2023-09-07T04:55:22;101422.70;;;12.22;90.99
75536;BME280;64119;52.070;20.804;2023-09-07T04:57:50;101426.48;;;12.28;91.78
75536;BME280;64119;52.070;20.804;2023-09-07T05:00:18;101428.62;;;12.34;90.88
75536;BME280;64119;52.070;20.804;2023-09-07T05:02:47;101430.73;;;12.40;90.71
75536;BME280;64119;52.070;20.804;2023-09-07T05:05:15;101434.16;;;12.48;91.23
75536;BME280;64119;52.070;20.804;2023-09-07T05:07:43;101431.86;;;12.55;90.79
75536;BME280;64119;52.070;20.804;2023-09-07T05:10:11;101433.86;;;12.64;90.44
75536;BME280;64119;52.070;20.804;2023-09-07T05:12:40;101434.51;;;12.74;90.18
75536;BME280;64119;52.070;20.804;2023-09-07T05:15:09;101435.55;;;12.83;89.97
75536;BME280;64119;52.070;20.804;2023-09-07T05:17:37;101437.58;;;12.93;89.72
75536;BME280;64119;52.070;20.804;2023-09-07T05:20:06;101436.85;;;13.04;90.30
75536;BME280;64119;52.070;20.804;2023-09-07T05:22:34;101440.00;;;13.16;90.86
75536;BME280;64119;52.070;20.804;2023-09-07T05:25:05;101436.66;;;13.28;90.55
75536;BME280;64119;52.070;20.804;2023-09-07T05:27:36;101440.35;;;13.41;89.67
75536;BME280;64119;52.070;20.804;2023-09-07T05:30:06;101441.14;;;13.53;89.72
75536;BME280;64119;52.070;20.804;2023-09-07T05:32:34;101442.87;;;13.67;89.83
75536;BME280;64119;52.070;20.804;2023-09-07T05:35:02;101440.85;;;13.81;89.89
75536;BME280;64119;52.070;20.804;2023-09-07T05:37:30;101442.17;;;13.95;89.89
75536;BME280;64119;52.070;20.804;2023-09-07T05:39:58;101443.61;;;14.09;89.75
75536;BME280;64119;52.070;20.804;2023-09-07T05:42:26;101445.66;;;14.25;89.22
75536;BME280;64119;52.070;20.804;2023-09-07T05:44:55;101446.58;;;14.40;89.24
75536;BME280;64119;52.070;20.804;2023-09-07T05:47:22;101452.17;;;14.57;89.33
75536;BME280;64119;52.070;20.804;2023-09-07T05:49:54;101448.05;;;14.75;89.17
75536;BME280;64119;52.070;20.804;2023-09-07T05:52:21;101449.56;;;14.92;88.67
75536;BME280;64119;52.070;20.804;2023-09-07T05:54:49;101448.43;;;15.10;88.37
75536;BME280;64119;52.070;20.804;2023-09-07T05:57:17;101455.71;;;15.28;88.50
75536;BME280;64119;52.070;20.804;2023-09-07T05:59:45;101455.04;;;15.48;88.18
75536;BME280;64119;52.070;20.804;2023-09-07T06:02:12;101458.65;;;15.67;87.95
75536;BME280;64119;52.070;20.804;2023-09-07T06:04:40;101459.35;;;15.86;87.45
75536;BME280;64119;52.070;20.804;2023-09-07T06:07:08;101457.67;;;16.05;87.43
75536;BME280;64119;52.070;20.804;2023-09-07T06:09:36;101456.77;;;16.25;87.17
75536;BME280;64119;52.070;20.804;2023-09-07T06:12:04;101457.09;;;16.44;86.75
75536;BME280;64119;52.070;20.804;2023-09-07T06:14:32;101457.55;;;16.63;86.19
75536;BME280;64119;52.070;20.804;2023-09-07T06:17:00;101463.30;;;16.83;85.93
75536;BME280;64119;52.070;20.804;2023-09-07T06:19:28;101461.16;;;17.03;85.61
75536;BME280;64119;52.070;20.804;2023-09-07T06:21:56;101467.27;;;17.24;85.41
75536;BME280;64119;52.070;20.804;2023-09-07T06:24:24;101468.14;;;17.46;84.98
75536;BME280;64119;52.070;20.804;2023-09-07T06:26:52;101471.46;;;17.67;84.84
75536;BME280;64119;52.070;20.804;2023-09-07T06:29:20;101475.23;;;17.89;85.44
75536;BME280;64119;52.070;20.804;2023-09-07T06:31:48;101471.77;;;18.10;83.97
75536;BME280;64119;52.070;20.804;2023-09-07T06:34:18;101472.20;;;18.31;83.19
75536;BME280;64119;52.070;20.804;2023-09-07T06:36:46;101474.09;;;18.50;82.93
75536;BME280;64119;52.070;20.804;2023-09-07T06:39:18;101474.21;;;18.72;82.27
75536;BME280;64119;52.070;20.804;2023-09-07T06:41:46;101470.63;;;18.92;82.03
75536;BME280;64119;52.070;20.804;2023-09-07T06:44:15;101467.89;;;19.12;80.81
75536;BME280;64119;52.070;20.804;2023-09-07T06:46:44;101464.07;;;19.32;80.97
75536;BME280;64119;52.070;20.804;2023-09-07T06:49:12;101469.34;;;19.49;80.07
75536;BME280;64119;52.070;20.804;2023-09-07T06:51:40;101465.25;;;19.63;78.87
75536;BME280;64119;52.070;20.804;2023-09-07T06:54:08;101467.16;;;19.79;79.19
75536;BME280;64119;52.070;20.804;2023-09-07T06:56:37;101469.92;;;19.98;77.79
75536;BME280;64119;52.070;20.804;2023-09-07T06:59:05;101471.18;;;20.17;77.42
75536;BME280;64119;52.070;20.804;2023-09-07T07:01:33;101472.21;;;20.36;76.21
75536;BME280;64119;52.070;20.804;2023-09-07T07:04:01;101473.30;;;20.53;75.50
75536;BME280;64119;52.070;20.804;2023-09-07T07:06:29;101474.09;;;20.72;75.71
75536;BME280;64119;52.070;20.804;2023-09-07T07:08:57;101475.71;;;20.93;75.76
75536;BME280;64119;52.070;20.804;2023-09-07T07:11:25;101479.48;;;21.14;75.05
75536;BME280;64119;52.070;20.804;2023-09-07T07:13:53;101474.80;;;21.34;73.66
75536;BME280;64119;52.070;20.804;2023-09-07T07:16:21;101480.70;;;21.51;73.12
75536;BME280;64119;52.070;20.804;2023-09-07T07:18:51;101481.66;;;21.71;72.87
75536;BME280;64119;52.070;20.804;2023-09-07T07:21:19;101481.68;;;21.89;72.12
75536;BME280;64119;52.070;20.804;2023-09-07T07:23:46;101484.08;;;22.09;71.32
75536;BME280;64119;52.070;20.804;2023-09-07T07:26:16;101486.02;;;22.26;69.40
75536;BME280;64119;52.070;20.804;2023-09-07T07:28:45;101490.27;;;22.42;68.58
75536;BME280;64119;52.070;20.804;2023-09-07T07:31:13;101487.44;;;22.57;66.71
75536;BME280;64119;52.070;20.804;2023-09-07T07:33:44;101490.24;;;22.75;66.80
75536;BME280;64119;52.070;20.804;2023-09-07T07:36:13;101488.38;;;22.93;68.97
75536;BME280;64119;52.070;20.804;2023-09-07T07:38:41;101491.05;;;23.12;66.84
75536;BME280;64119;52.070;20.804;2023-09-07T07:41:09;101489.39;;;23.27;65.39
75536;BME280;64119;52.070;20.804;2023-09-07T07:43:37;101489.71;;;23.41;65.93
75536;BME280;64119;52.070;20.804;2023-09-07T07:46:05;101488.70;;;23.58;65.45
75536;BME280;64119;52.070;20.804;2023-09-07T07:48:34;101491.94;;;23.78;65.45
75536;BME280;64119;52.070;20.804;2023-09-07T07:51:04;101491.98;;;23.99;63.85
75536;BME280;64119;52.070;20.804;2023-09-07T07:53:36;101491.98;;;24.17;63.94
75536;BME280;64119;52.070;20.804;2023-09-07T07:56:17;101490.87;;;24.34;63.39
75536;BME280;64119;52.070;20.804;2023-09-07T07:58:48;101495.86;;;24.53;63.50
75536;BME280;64119;52.070;20.804;2023-09-07T08:01:17;101495.70;;;24.70;61.81
75536;BME280;64119;52.070;20.804;2023-09-07T08:03:46;101496.53;;;24.93;62.12
75536;BME280;64119;52.070;20.804;2023-09-07T08:06:14;101499.81;;;25.13;60.82
75536;BME280;64119;52.070;20.804;2023-09-07T08:29:44;101495.98;;;26.70;53.78
75536;BME280;64119;52.070;20.804;2023-09-07T08:32:19;101492.20;;;26.98;53.06
75536;BME280;64119;52.070;20.804;2023-09-07T08:34:46;101491.91;;;27.23;52.80
75536;BME280;64119;52.070;20.804;2023-09-07T08:37:14;101495.54;;;27.51;53.66
75536;BME280;64119;52.070;20.804;2023-09-07T08:39:42;101488.76;;;27.76;50.36
75536;BME280;64119;52.070;20.804;2023-09-07T08:42:10;101489.93;;;27.94;50.67
75536;BME280;64119;52.070;20.804;2023-09-07T08:44:39;101494.45;;;28.24;49.09
75536;BME280;64119;52.070;20.804;2023-09-07T08:47:08;101484.09;;;28.37;48.61
75536;BME280;64119;52.070;20.804;2023-09-07T08:49:36;101488.24;;;28.66;49.93
75536;BME280;64119;52.070;20.804;2023-09-07T08:52:05;101485.49;;;28.97;47.84
75536;BME280;64119;52.070;20.804;2023-09-07T08:54:34;101482.74;;;29.33;48.49
75536;BME280;64119;52.070;20.804;2023-09-07T08:57:04;101482.96;;;29.71;46.44
75536;BME280;64119;52.070;20.804;2023-09-07T08:59:32;101483.00;;;29.86;45.26
75536;BME280;64119;52.070;20.804;2023-09-07T09:02:00;101479.38;;;30.17;44.43
75536;BME280;64119;52.070;20.804;2023-09-07T09:04:28;101479.58;;;30.38;44.74
75536;BME280;64119;52.070;20.804;2023-09-07T09:06:56;101478.90;;;30.40;44.19
75536;BME280;64119;52.070;20.804;2023-09-07T09:09:26;101480.98;;;30.46;43.84
75536;BME280;64119;52.070;20.804;2023-09-07T09:11:55;101476.55;;;30.57;42.98
75536;BME280;64119;52.070;20.804;2023-09-07T09:14:33;101477.77;;;30.71;42.99
75536;BME280;64119;52.070;20.804;2023-09-07T09:17:01;101474.61;;;30.82;42.32
75536;BME280;64119;52.070;20.804;2023-09-07T09:19:33;101477.73;;;30.96;42.18
75536;BME280;64119;52.070;20.804;2023-09-07T09:22:01;101475.23;;;31.11;43.40
75536;BME280;64119;52.070;20.804;2023-09-07T09:24:35;101472.64;;;31.35;39.41
75536;BME280;64119;52.070;20.804;2023-09-07T09:27:03;101472.39;;;31.52;40.39
75536;BME280;64119;52.070;20.804;2023-09-07T09:29:33;101470.88;;;31.75;42.05
75536;BME280;64119;52.070;20.804;2023-09-07T09:32:06;101463.91;;;31.90;40.92
75536;BME280;64119;52.070;20.804;2023-09-07T09:34:36;101465.28;;;31.96;40.24
75536;BME280;64119;52.070;20.804;2023-09-07T09:37:12;101465.02;;;32.10;41.82
75536;BME280;64119;52.070;20.804;2023-09-07T09:39:41;101465.98;;;32.37;39.37
75536;BME280;64119;52.070;20.804;2023-09-07T09:42:10;101461.75;;;32.63;39.84
75536;BME280;64119;52.070;20.804;2023-09-07T09:44:40;101462.39;;;33.01;38.80
75536;BME280;64119;52.070;20.804;2023-09-07T09:47:09;101458.56;;;33.19;37.91
75536;BME280;64119;52.070;20.804;2023-09-07T09:49:39;101461.13;;;33.42;37.19
75536;BME280;64119;52.070;20.804;2023-09-07T09:52:08;101459.61;;;33.61;35.61
75536;BME280;64119;52.070;20.804;2023-09-07T09:54:36;101459.71;;;33.72;36.12
75536;BME280;64119;52.070;20.804;2023-09-07T09:57:04;101455.94;;;33.32;35.77
75536;BME280;64119;52.070;20.804;2023-09-07T09:59:34;101452.77;;;32.83;36.25
75536;BME280;64119;52.070;20.804;2023-09-07T10:02:03;101451.02;;;32.93;38.23
75536;BME280;64119;52.070;20.804;2023-09-07T10:04:32;101450.23;;;33.62;38.42
75536;BME280;64119;52.070;20.804;2023-09-07T10:07:01;101451.98;;;33.97;35.12
75536;BME280;64119;52.070;20.804;2023-09-07T10:09:32;101450.31;;;34.23;33.95
75536;BME280;64119;52.070;20.804;2023-09-07T10:12:01;101447.79;;;34.27;33.73
75536;BME280;64119;52.070;20.804;2023-09-07T10:14:41;101449.41;;;34.57;34.42
75536;BME280;64119;52.070;20.804;2023-09-07T10:17:09;101452.74;;;34.49;35.15
75536;BME280;64119;52.070;20.804;2023-09-07T10:19:37;101446.11;;;34.23;34.11
75536;BME280;64119;52.070;20.804;2023-09-07T10:22:07;101446.79;;;34.14;34.05
75536;BME280;64119;52.070;20.804;2023-09-07T10:24:35;101445.08;;;34.36;33.54
75536;BME280;64119;52.070;20.804;2023-09-07T10:27:08;101441.72;;;33.98;34.18
75536;BME280;64119;52.070;20.804;2023-09-07T10:29:46;101442.36;;;33.50;35.05
75536;BME280;64119;52.070;20.804;2023-09-07T10:32:22;101442.70;;;33.00;36.72
75536;BME280;64119;52.070;20.804;2023-09-07T10:34:50;101445.84;;;32.91;37.27
75536;BME280;64119;52.070;20.804;2023-09-07T10:37:28;101444.95;;;33.08;37.23
75536;BME280;64119;52.070;20.804;2023-09-07T10:39:56;101444.78;;;33.35;35.14
75536;BME280;64119;52.070;20.804;2023-09-07T10:42:26;101441.92;;;33.86;35.42
75536;BME280;64119;52.070;20.804;2023-09-07T10:44:54;101442.95;;;34.15;35.32
75536;BME280;64119;52.070;20.804;2023-09-07T10:47:22;101439.74;;;34.43;34.37
75536;BME280;64119;52.070;20.804;2023-09-07T10:49:50;101439.80;;;34.39;33.90
75536;BME280;64119;52.070;20.804;2023-09-07T10:52:18;101439.49;;;34.46;33.23
75536;BME280;64119;52.070;20.804;2023-09-07T10:54:55;101436.98;;;34.60;33.23
75536;BME280;64119;52.070;20.804;2023-09-07T10:57:23;101437.80;;;34.66;32.44
75536;BME280;64119;52.070;20.804;2023-09-07T10:59:51;101435.81;;;34.93;33.63
75536;BME280;64119;52.070;20.804;2023-09-07T11:02:22;101435.22;;;35.21;33.03
75536;BME280;64119;52.070;20.804;2023-09-07T11:04:50;101435.94;;;35.09;32.43
75536;BME280;64119;52.070;20.804;2023-09-07T11:07:18;101438.10;;;35.16;33.10
75536;BME280;64119;52.070;20.804;2023-09-07T11:09:51;101433.15;;;35.30;33.78
75536;BME280;64119;52.070;20.804;2023-09-07T11:12:20;101430.25;;;35.18;32.80
75536;BME280;64119;52.070;20.804;2023-09-07T11:14:48;101429.04;;;34.70;32.68
75536;BME280;64119;52.070;20.804;2023-09-07T11:17:16;101423.98;;;33.88;33.77
75536;BME280;64119;52.070;20.804;2023-09-07T11:19:44;101424.07;;;33.57;34.56
75536;BME280;64119;52.070;20.804;2023-09-07T11:22:12;101424.61;;;33.49;34.67
75536;BME280;64119;52.070;20.804;2023-09-07T11:24:41;101422.27;;;33.06;34.54
75536;BME280;64119;52.070;20.804;2023-09-07T11:27:09;101418.30;;;32.68;34.75
75536;BME280;64119;52.070;20.804;2023-09-07T11:29:37;101413.98;;;32.56;35.09
75536;BME280;64119;52.070;20.804;2023-09-07T11:32:10;101411.58;;;32.71;34.66
75536;BME280;64119;52.070;20.804;2023-09-07T11:34:49;101413.61;;;32.41;35.57
75536;BME280;64119;52.070;20.804;2023-09-07T11:37:22;101415.13;;;31.94;36.53
75536;BME280;64119;52.070;20.804;2023-09-07T11:39:50;101418.11;;;31.62;37.13
75536;BME280;64119;52.070;20.804;2023-09-07T11:42:18;101421.98;;;31.35;37.34
75536;BME280;64119;52.070;20.804;2023-09-07T11:44:46;101419.80;;;30.89;36.91
75536;BME280;64119;52.070;20.804;2023-09-07T11:47:14;101421.13;;;30.56;38.44
75536;BME280;64119;52.070;20.804;2023-09-07T11:49:42;101421.00;;;30.38;39.11
75536;BME280;64119;52.070;20.804;2023-09-07T11:52:10;101415.60;;;30.58;40.68
75536;BME280;64119;52.070;20.804;2023-09-07T11:54:38;101411.62;;;30.87;38.42
75536;BME280;64119;52.070;20.804;2023-09-07T11:57:05;101411.53;;;31.16;38.58
75536;BME280;64119;52.070;20.804;2023-09-07T11:59:33;101407.81;;;31.39;37.61
75536;BME280;64119;52.070;20.804;2023-09-07T12:02:19;101410.34;;;31.52;38.32
75536;BME280;64119;52.070;20.804;2023-09-07T12:04:49;101410.77;;;31.61;39.70
75536;BME280;64119;52.070;20.804;2023-09-07T12:07:17;101410.09;;;31.65;37.71
75536;BME280;64119;52.070;20.804;2023-09-07T12:09:45;101412.90;;;31.59;37.30
75536;BME280;64119;52.070;20.804;2023-09-07T12:12:12;101412.02;;;31.57;38.45
75536;BME280;64119;52.070;20.804;2023-09-07T12:30:15;101401.30;;;31.09;39.02
75536;BME280;64119;52.070;20.804;2023-09-07T12:32:46;101397.63;;;30.93;39.80
75536;BME280;64119;52.070;20.804;2023-09-07T12:35:14;101397.15;;;30.73;38.89
75536;BME280;64119;52.070;20.804;2023-09-07T12:37:43;101401.10;;;30.46;40.51
75536;BME280;64119;52.070;20.804;2023-09-07T12:40:11;101398.52;;;30.26;41.08
75536;BME280;64119;52.070;20.804;2023-09-07T12:42:43;101394.64;;;30.08;40.47
75536;BME280;64119;52.070;20.804;2023-09-07T12:45:12;101392.07;;;30.03;40.76
75536;BME280;64119;52.070;20.804;2023-09-07T12:47:41;101390.05;;;29.89;39.90
75536;BME280;64119;52.070;20.804;2023-09-07T12:50:09;101387.67;;;29.71;40.12
75536;BME280;64119;52.070;20.804;2023-09-07T12:52:37;101381.02;;;29.47;40.18
75536;BME280;64119;52.070;20.804;2023-09-07T12:55:07;101380.85;;;29.27;41.04
75536;BME280;64119;52.070;20.804;2023-09-07T12:57:35;101385.52;;;29.15;40.58
75536;BME280;64119;52.070;20.804;2023-09-07T13:00:04;101385.20;;;28.98;41.39
75536;BME280;64119;52.070;20.804;2023-09-07T13:02:33;101383.89;;;28.70;42.18
75536;BME280;64119;52.070;20.804;2023-09-07T13:05:01;101377.02;;;28.76;40.91
75536;BME280;64119;52.070;20.804;2023-09-07T13:07:33;101373.27;;;28.76;41.69
75536;BME280;64119;52.070;20.804;2023-09-07T13:10:03;101368.48;;;28.72;41.17
75536;BME280;64119;52.070;20.804;2023-09-07T13:12:32;101368.56;;;28.82;40.67
75536;BME280;64119;52.070;20.804;2023-09-07T13:15:00;101366.36;;;28.91;41.61
75536;BME280;64119;52.070;20.804;2023-09-07T13:17:28;101359.35;;;28.93;40.63
75536;BME280;64119;52.070;20.804;2023-09-07T13:19:56;101352.88;;;28.96;39.96
75536;BME280;64119;52.070;20.804;2023-09-07T13:22:24;101347.89;;;28.79;39.64
75536;BME280;64119;52.070;20.804;2023-09-07T13:24:52;101349.79;;;28.73;40.30